Ship Status Report: callsign OS8154

sailwx.info

Track history (hours):
 
Tides and Currents Weather Stations Pressure Air Temp Water Temp Dewpoint Dewpoint Depression Visibility Wind Speed Wind Dir Waves Ship Positions

Callsign OS8154 (name unknown)

Last reported at 2014-Aug-02 00:00 UTC. Time now 2014-Aug-02 02:45 UTC.
Position N 69°06' W 105°06'.

Barometer 1012.4 mb
Air temperature 4.0 ° C

Date/timePositionNaut miles runAvg speedWind from/ knotsBaromVisibWave heightAir tempDewpointWater temp
2014-Aug-02 00:00N 69°06' W 105°06'0 0.0 1012.4 4.0
2014-Aug-01 23:00N 69°06' W 105°06'0 0.0 1012.6 5.8
2014-Aug-01 22:00N 69°06' W 105°06'0 0.0 1012.8 5.5
2014-Aug-01 21:00N 69°06' W 105°06'0 0.0 1013.0 6.3
2014-Aug-01 19:00N 69°06' W 105°06'0 0.0 1013.5 7.3
2014-Aug-01 18:00N 69°06' W 105°06'2 1.1 1014.0 7.0
2014-Aug-01 16:00N 69°06' W 105°12'9 8.6 1015.1 2.8
2014-Aug-01 15:00N 69°06' W 105°36'9 8.6 1015.3 2.3
2014-Aug-01 14:00N 69°06' W 106°00'0 0.0 1015.4 2.3
2014-Aug-01 13:00N 69°06' W 106°00'0 0.0 1015.7 0.8
2014-Aug-01 12:00N 69°06' W 106°00'0 0.0 1015.7 0.8
2014-Aug-01 11:00N 69°06' W 106°00'0 0.0 1015.8 1.3
2014-Aug-01 10:00N 69°06' W 106°00'0 0.0 1015.8 1.3
2014-Aug-01 08:00N 69°06' W 106°00'0 0.0 1015.9 1.3
2014-Aug-01 07:00N 69°06' W 106°00'0 0.0 1016.2 1.8
2014-Aug-01 05:00N 69°06' W 106°00'4 1.4 1015.8 2.0
2014-Aug-01 02:00N 69°06' W 106°12'14 7.1 1015.7 1.5
2014-Aug-01 00:00N 69°12' W 106°48'7 7.4 1015.7 5.5
2014-Jul-31 23:00N 69°06' W 107°00'7 7.4 1015.4 6.5
2014-Jul-31 22:00N 69°00' W 107°12'4 4.3 1015.3 6.5
2014-Jul-31 21:00N 69°00' W 107°24'9 8.8 1015.5 3.0
2014-Jul-31 20:00N 68°54' W 107°42'9 8.6 1015.3 6.3
2014-Jul-31 19:00N 68°54' W 108°06'9 8.6 1015.2 7.0
2014-Jul-31 18:00N 68°54' W 108°30'0 0.0 1015.2 7.5
2014-Jul-31 17:00N 68°54' W 108°30'0 0.0 1014.8 7.5
2014-Jul-31 16:00N 68°54' W 108°30'0 0.0 1014.2 7.8
2014-Jul-31 15:00N 68°54' W 108°30'0 0.0 1013.6 7.8
2014-Jul-31 14:00N 68°54' W 108°30'0 0.0 1013.4 6.8
2014-Jul-31 13:00N 68°54' W 108°30'0 0.0 1012.9 6.8
2014-Jul-31 12:00N 68°54' W 108°30'0 0.0 1012.3 6.8
2014-Jul-31 11:00N 68°54' W 108°30'0 0.0 1012.2 6.3
2014-Jul-31 10:00N 68°54' W 108°30'0 0.0 1011.6 6.3
2014-Jul-31 09:00N 68°54' W 108°30'0 0.0 1011.4 6.5
2014-Jul-31 07:00N 68°54' W 108°30'0 0.0 1011.1 6.8
2014-Jul-31 04:00N 68°54' W 108°30'0 0.0 1010.9 8.3
2014-Jul-31 03:00N 68°54' W 108°30'6 6.4 1010.8 10.3
2014-Jul-31 02:00N 68°48' W 108°36'9 8.9 1010.7 8.0
2014-Jul-31 01:00N 68°42' W 108°54'12 6.2 1010.9 8.3
2014-Jul-30 23:00N 68°36' W 109°24'11 5.5 1011.2 6.8
2014-Jul-30 21:00N 68°36' W 109°54'0 0.0 1011.6 7.3
2014-Jul-30 20:00N 68°36' W 109°54'13 6.3 1012.6 4.8
2014-Jul-30 18:00N 68°30' W 110°24'2 2.2 1013.3 5.8
2014-Jul-30 17:00N 68°30' W 110°30'4 4.4 1014.4 6.3
2014-Jul-30 16:00N 68°30' W 110°42'0 0.0 1015.0 6.3
2014-Jul-30 15:00N 68°30' W 110°42'0 0.0 1016.2 5.0
2014-Jul-30 13:00N 68°30' W 110°42'0 0.0 1017.9 4.3
2014-Jul-30 11:00N 68°30' W 110°42'0 0.0 1018.9 4.3
2014-Jul-30 10:00N 68°30' W 110°42'0 0.0 1019.3 8.0
2014-Jul-30 08:00N 68°30' W 110°42'0 0.0 1020.0 4.8
2014-Jul-30 05:00N 68°30' W 110°42'0 0.0 1020.5 7.8
2014-Jul-30 03:00N 68°30' W 110°42'0 0.0 1020.5 9.8
2014-Jul-30 01:00N 68°30' W 110°42'0 0.0 1020.5 10.8
2014-Jul-29 23:00N 68°30' W 110°42'2 2.2 1020.5 10.3
2014-Jul-29 22:00N 68°30' W 110°36'6 6.0 1020.6 3.3
2014-Jul-29 21:00N 68°24' W 110°36'6 6.0 1020.6 3.3
2014-Jul-29 20:00N 68°30' W 110°36'2 1.1 1020.4 3.8
2014-Jul-29 18:00N 68°30' W 110°42'4 4.4 1019.8
2014-Jul-29 17:00N 68°30' W 110°54'2 2.2 1019.6 5.5
2014-Jul-29 16:00N 68°30' W 111°00'0 0.0 1019.5 4.8
2014-Jul-29 15:00N 68°30' W 111°00'0 0.0 1019.3 7.5
2014-Jul-29 13:00N 68°30' W 111°00'0 0.0 1019.1 7.0
2014-Jul-29 12:00N 68°30' W 111°00'0 0.0 1019.0 5.8
2014-Jul-29 11:00N 68°30' W 111°00'0 0.0 1018.7 5.3
2014-Jul-29 09:00N 68°30' W 111°00'0 0.0 1018.5 3.8
2014-Jul-29 07:00N 68°30' W 111°00'0 0.0 1018.3 6.5
2014-Jul-29 04:00N 68°30' W 111°00'0 0.0 1018.3 5.8
2014-Jul-29 03:00N 68°30' W 111°00'0 0.0 1018.3 6.8
2014-Jul-29 02:00N 68°30' W 111°00'0 0.0 1018.3 8.0
2014-Jul-29 01:00N 68°30' W 111°00'0 0.0 1018.5 6.8
2014-Jul-29 00:00N 68°30' W 111°00'0 0.0 1018.6 5.5
2014-Jul-28 22:00N 68°30' W 111°00'0 0.0 1019.1 6.3
2014-Jul-28 21:00N 68°30' W 111°00'0 0.0 1019.1 7.3
2014-Jul-28 20:00N 68°30' W 111°00'0 0.0 1019.3 8.3
2014-Jul-28 19:00N 68°30' W 111°00'0 0.0 1019.2 8.0
2014-Jul-28 15:00N 68°30' W 111°00'0 0.0 1020.1 8.8
2014-Jul-28 13:00N 68°30' W 111°00'0 0.0 1020.1 8.0
2014-Jul-28 12:00N 68°30' W 111°00'0 0.0 1019.9 6.3
2014-Jul-28 11:00N 68°30' W 111°00'0 0.0 1019.8 9.3
2014-Jul-28 04:00N 68°30' W 111°00'0 0.0 1019.8 7.3
2014-Jul-28 03:00N 68°30' W 111°00'0 0.0 1019.9 5.0
2014-Jul-28 02:00N 68°30' W 111°00'0 0.0 1020.1 6.0
2014-Jul-28 01:00N 68°30' W 111°00'0 0.0 1019.7 5.0
2014-Jul-28 00:00N 68°30' W 111°00'2 2.2 1019.7 4.8
2014-Jul-27 23:00N 68°30' W 111°06'6 3.2 1019.8 5.8
2014-Jul-27 21:00N 68°24' W 111°12'0 0.0 1019.6 5.0
2014-Jul-27 20:00N 68°24' W 111°12'0 0.0 1019.4 5.3
2014-Jul-27 19:00N 68°24' W 111°12'0 0.0 1019.0 5.8
2014-Jul-27 18:00N 68°24' W 111°12'2 1.1 1018.9 5.0
2014-Jul-27 16:00N 68°24' W 111°18'0 0.0 1018.5 4.8
2014-Jul-27 15:00N 68°24' W 111°18'0 0.0 1018.2 4.3
2014-Jul-27 14:00N 68°24' W 111°18'0 0.0 1018.1 5.5
2014-Jul-27 13:00N 68°24' W 111°18'0 0.0 1018.0 4.5
2014-Jul-27 10:00N 68°24' W 111°18'0 0.0 1016.7 5.5
2014-Jul-27 09:00N 68°24' W 111°18'0 0.0 1017.1 6.0
2014-Jul-27 08:00N 68°24' W 111°18'0 0.0 1016.7 6.0
2014-Jul-27 06:00N 68°24' W 111°18'0 0.0 1016.3 7.0
2014-Jul-27 03:00N 68°24' W 111°18'0 0.0 1016.8 7.0
2014-Jul-27 01:00N 68°24' W 111°18'7 6.6 1016.5 6.0
2014-Jul-27 00:00N 68°24' W 111°36'9 8.8 1016.8 6.5
2014-Jul-26 23:00N 68°24' W 112°00'9 8.8 1016.4 6.3
2014-Jul-26 22:00N 68°24' W 112°24'9 8.8 1016.0 6.0
2014-Jul-26 21:00N 68°24' W 112°48'7 6.6 1016.0 6.8
2014-Jul-26 20:00N 68°24' W 113°06'9 8.9 1016.0 7.0
2014-Jul-26 19:00N 68°30' W 113°24'9 8.9 1015.9 11.0
2014-Jul-26 18:00N 68°36' W 113°42'1110.6 1015.9 9.3
2014-Jul-26 17:00N 68°42' W 114°06'7 6.5 1016.0 8.3
2014-Jul-26 16:00N 68°42' W 114°24'1110.6 1015.9 5.8
2014-Jul-26 15:00N 68°48' W 114°48'0 0.0 1015.6 8.3
2014-Jul-26 13:00N 68°48' W 114°48'0 0.0 1015.3 8.3
2014-Jul-26 12:00N 68°48' W 114°48'0 0.0 1015.1 8.5
2014-Jul-26 11:00N 68°48' W 114°48'0 0.0 1015.0 8.8
2014-Jul-26 10:00N 68°48' W 114°48'0 0.0 1014.8 8.3
2014-Jul-26 08:00N 68°48' W 114°48'0 0.0 1014.6 8.5
2014-Jul-26 05:00N 68°48' W 114°48'0 0.0 1013.6 9.0
2014-Jul-26 04:00N 68°48' W 114°48'0 0.0 1013.1 9.3
2014-Jul-26 03:00N 68°48' W 114°48'0 0.0 1012.6 9.8
2014-Jul-26 02:00N 68°48' W 114°48'0 0.0 1012.3 9.0
2014-Jul-26 00:00N 68°48' W 114°48'0 0.0 1011.9 9.5
2014-Jul-25 22:00N 68°48' W 114°48'0 0.0 1010.8 14.0
2014-Jul-25 21:00N 68°48' W 114°48'0 0.0 1010.7 12.3
2014-Jul-25 20:00N 68°48' W 114°48'0 0.0 1010.1 10.8
2014-Jul-25 19:00N 68°48' W 114°48'0 0.0 1009.5 9.8
2014-Jul-25 18:00N 68°48' W 114°48'0 0.0 1009.0 8.8
2014-Jul-25 17:00N 68°48' W 114°48'0 0.0 1008.9 10.0
2014-Jul-25 16:00N 68°48' W 114°48'0 0.0 1008.2 10.3
2014-Jul-25 13:00N 68°48' W 114°48'0 0.0 1008.0 8.8
2014-Jul-25 12:00N 68°48' W 114°48'2 2.2 1007.7 8.5
2014-Jul-25 11:00N 68°48' W 114°42'7 7.4 1006.0 8.8
2014-Jul-25 10:00N 68°54' W 114°54'39 9.7 1005.7 6.8
2014-Jul-25 06:00N 69°12' W 116°30'9 8.5 1005.4 6.3
2014-Jul-25 05:00N 69°12' W 116°54'1212.2 1005.7 6.5
2014-Jul-25 04:00N 69°18' W 117°24'1010.4 1005.8 6.8
2014-Jul-25 03:00N 69°24' W 117°48'6 6.3 1005.7 7.3
2014-Jul-25 02:00N 69°24' W 118°06'1010.3 1005.6 8.8
2014-Jul-25 01:00N 69°30' W 118°30'8 8.4 1005.4 9.0
2014-Jul-25 00:00N 69°30' W 118°54'1010.3 1005.5 10.5
2014-Jul-24 23:00N 69°36' W 119°18'1010.3 1005.3 9.0
2014-Jul-24 22:00N 69°42' W 119°42'20 9.8 1004.7 8.3
2014-Jul-24 20:00N 69°48' W 120°36'8 8.3 1004.7 8.0
2014-Jul-24 19:00N 69°48' W 121°00'1010.4 1004.6 8.5
2014-Jul-24 18:00N 69°48' W 121°30'8 8.3 1004.4 8.8
2014-Jul-24 17:00N 69°48' W 121°54'1010.2 1004.2 9.0
2014-Jul-24 16:00N 69°54' W 122°18'1010.2 1004.3 8.5
2014-Jul-24 15:00N 69°48' W 122°42'0 0.0 1004.1 9.5
2014-Jul-24 13:00N 69°48' W 122°42'0 0.0 1004.0 8.5
2014-Jul-24 12:00N 69°48' W 122°42'0 0.0 1004.0 8.5
2014-Jul-24 11:00N 69°48' W 122°42'0 0.0 1003.8 9.3
2014-Jul-24 10:00N 69°48' W 122°42'0 0.0 1003.7 8.5
2014-Jul-24 09:00N 69°48' W 122°42'0 0.0 1003.7 8.0
2014-Jul-24 08:00N 69°48' W 122°42'0 0.0 1002.7 8.0
2014-Jul-24 07:00N 69°48' W 122°42'0 0.0 1002.5 8.8
2014-Jul-24 06:00N 69°48' W 122°42'0 0.0 1003.4 8.8
2014-Jul-24 02:00N 69°48' W 122°42'0 0.0 1004.2 9.3
2014-Jul-24 01:00N 69°48' W 122°42'6 6.2 1004.0 9.3
2014-Jul-24 00:00N 69°48' W 123°00'9 8.6 1004.9 11.0
2014-Jul-23 23:00N 69°42' W 123°18'9 8.7 1004.9 11.3
2014-Jul-23 22:00N 69°36' W 123°36'9 8.7 1005.0 11.0
2014-Jul-23 21:00N 69°30' W 123°54'   1005.4 13.8
Track history (hours):
 
Tides and Currents Weather Stations Pressure Air Temp Water Temp Dewpoint Dewpoint Depression Visibility Wind Speed Wind Dir Waves Ship Positions

Callsign OS8154 (name unknown)

Last reported at 2014-Aug-02 00:00 UTC. Time now 2014-Aug-02 02:45 UTC.
Position N 69°06' W 105°06'.

Barometer 1012.4 mb
Air temperature 4.0 ° C

Date/timePositionNaut miles runAvg speedWind from/ knotsBaromVisibWave heightAir tempDewpointWater temp
2014-Aug-02 00:00N 69°06' W 105°06'0 0.0 1012.4 4.0
2014-Aug-01 23:00N 69°06' W 105°06'0 0.0 1012.6 5.8
2014-Aug-01 22:00N 69°06' W 105°06'0 0.0 1012.8 5.5
2014-Aug-01 21:00N 69°06' W 105°06'0 0.0 1013.0 6.3
2014-Aug-01 19:00N 69°06' W 105°06'0 0.0 1013.5 7.3
2014-Aug-01 18:00N 69°06' W 105°06'2 1.1 1014.0 7.0
2014-Aug-01 16:00N 69°06' W 105°12'9 8.6 1015.1 2.8
2014-Aug-01 15:00N 69°06' W 105°36'9 8.6 1015.3 2.3
2014-Aug-01 14:00N 69°06' W 106°00'0 0.0 1015.4 2.3
2014-Aug-01 13:00N 69°06' W 106°00'0 0.0 1015.7 0.8
2014-Aug-01 12:00N 69°06' W 106°00'0 0.0 1015.7 0.8
2014-Aug-01 11:00N 69°06' W 106°00'0 0.0 1015.8 1.3
2014-Aug-01 10:00N 69°06' W 106°00'0 0.0 1015.8 1.3
2014-Aug-01 08:00N 69°06' W 106°00'0 0.0 1015.9 1.3
2014-Aug-01 07:00N 69°06' W 106°00'0 0.0 1016.2 1.8
2014-Aug-01 05:00N 69°06' W 106°00'4 1.4 1015.8 2.0
2014-Aug-01 02:00N 69°06' W 106°12'14 7.1 1015.7 1.5
2014-Aug-01 00:00N 69°12' W 106°48'7 7.4 1015.7 5.5
2014-Jul-31 23:00N 69°06' W 107°00'7 7.4 1015.4 6.5
2014-Jul-31 22:00N 69°00' W 107°12'4 4.3 1015.3 6.5
2014-Jul-31 21:00N 69°00' W 107°24'9 8.8 1015.5 3.0
2014-Jul-31 20:00N 68°54' W 107°42'9 8.6 1015.3 6.3
2014-Jul-31 19:00N 68°54' W 108°06'9 8.6 1015.2 7.0
2014-Jul-31 18:00N 68°54' W 108°30'0 0.0 1015.2 7.5
2014-Jul-31 17:00N 68°54' W 108°30'0 0.0 1014.8 7.5
2014-Jul-31 16:00N 68°54' W 108°30'0 0.0 1014.2 7.8
2014-Jul-31 15:00N 68°54' W 108°30'0 0.0 1013.6 7.8
2014-Jul-31 14:00N 68°54' W 108°30'0 0.0 1013.4 6.8
2014-Jul-31 13:00N 68°54' W 108°30'0 0.0 1012.9 6.8
2014-Jul-31 12:00N 68°54' W 108°30'0 0.0 1012.3 6.8
2014-Jul-31 11:00N 68°54' W 108°30'0 0.0 1012.2 6.3
2014-Jul-31 10:00N 68°54' W 108°30'0 0.0 1011.6 6.3
2014-Jul-31 09:00N 68°54' W 108°30'0 0.0 1011.4 6.5
2014-Jul-31 07:00N 68°54' W 108°30'0 0.0 1011.1 6.8
2014-Jul-31 04:00N 68°54' W 108°30'0 0.0 1010.9 8.3
2014-Jul-31 03:00N 68°54' W 108°30'6 6.4 1010.8 10.3
2014-Jul-31 02:00N 68°48' W 108°36'9 8.9 1010.7 8.0
2014-Jul-31 01:00N 68°42' W 108°54'12 6.2 1010.9 8.3
2014-Jul-30 23:00N 68°36' W 109°24'11 5.5 1011.2 6.8
2014-Jul-30 21:00N 68°36' W 109°54'0 0.0 1011.6 7.3
2014-Jul-30 20:00N 68°36' W 109°54'13 6.3 1012.6 4.8
2014-Jul-30 18:00N 68°30' W 110°24'2 2.2 1013.3 5.8
2014-Jul-30 17:00N 68°30' W 110°30'4 4.4 1014.4 6.3
2014-Jul-30 16:00N 68°30' W 110°42'0 0.0 1015.0 6.3
2014-Jul-30 15:00N 68°30' W 110°42'0 0.0 1016.2 5.0
2014-Jul-30 13:00N 68°30' W 110°42'0 0.0 1017.9 4.3
2014-Jul-30 11:00N 68°30' W 110°42'0 0.0 1018.9 4.3
2014-Jul-30 10:00N 68°30' W 110°42'0 0.0 1019.3 8.0
2014-Jul-30 08:00N 68°30' W 110°42'0 0.0 1020.0 4.8
2014-Jul-30 05:00N 68°30' W 110°42'0 0.0 1020.5 7.8
2014-Jul-30 03:00N 68°30' W 110°42'0 0.0 1020.5 9.8
2014-Jul-30 01:00N 68°30' W 110°42'0 0.0 1020.5 10.8
2014-Jul-29 23:00N 68°30' W 110°42'2 2.2 1020.5 10.3
2014-Jul-29 22:00N 68°30' W 110°36'6 6.0 1020.6 3.3
2014-Jul-29 21:00N 68°24' W 110°36'6 6.0 1020.6 3.3
2014-Jul-29 20:00N 68°30' W 110°36'2 1.1 1020.4 3.8
2014-Jul-29 18:00N 68°30' W 110°42'4 4.4 1019.8
2014-Jul-29 17:00N 68°30' W 110°54'2 2.2 1019.6 5.5
2014-Jul-29 16:00N 68°30' W 111°00'0 0.0 1019.5 4.8
2014-Jul-29 15:00N 68°30' W 111°00'0 0.0 1019.3 7.5
2014-Jul-29 13:00N 68°30' W 111°00'0 0.0 1019.1 7.0
2014-Jul-29 12:00N 68°30' W 111°00'0 0.0 1019.0 5.8
2014-Jul-29 11:00N 68°30' W 111°00'0 0.0 1018.7 5.3
2014-Jul-29 09:00N 68°30' W 111°00'0 0.0 1018.5 3.8
2014-Jul-29 07:00N 68°30' W 111°00'0 0.0 1018.3 6.5
2014-Jul-29 04:00N 68°30' W 111°00'0 0.0 1018.3 5.8
2014-Jul-29 03:00N 68°30' W 111°00'0 0.0 1018.3 6.8
2014-Jul-29 02:00N 68°30' W 111°00'0 0.0 1018.3 8.0
2014-Jul-29 01:00N 68°30' W 111°00'0 0.0 1018.5 6.8
2014-Jul-29 00:00N 68°30' W 111°00'0 0.0 1018.6 5.5
2014-Jul-28 22:00N 68°30' W 111°00'0 0.0 1019.1 6.3
2014-Jul-28 21:00N 68°30' W 111°00'0 0.0 1019.1 7.3
2014-Jul-28 20:00N 68°30' W 111°00'0 0.0 1019.3 8.3
2014-Jul-28 19:00N 68°30' W 111°00'0 0.0 1019.2 8.0
2014-Jul-28 15:00N 68°30' W 111°00'0 0.0 1020.1 8.8
2014-Jul-28 13:00N 68°30' W 111°00'0 0.0 1020.1 8.0
2014-Jul-28 12:00N 68°30' W 111°00'0 0.0 1019.9 6.3
2014-Jul-28 11:00N 68°30' W 111°00'0 0.0 1019.8 9.3
2014-Jul-28 04:00N 68°30' W 111°00'0 0.0 1019.8 7.3
2014-Jul-28 03:00N 68°30' W 111°00'0 0.0 1019.9 5.0
2014-Jul-28 02:00N 68°30' W 111°00'0 0.0 1020.1 6.0
2014-Jul-28 01:00N 68°30' W 111°00'0 0.0 1019.7 5.0
2014-Jul-28 00:00N 68°30' W 111°00'2 2.2 1019.7 4.8
2014-Jul-27 23:00N 68°30' W 111°06'6 3.2 1019.8 5.8
2014-Jul-27 21:00N 68°24' W 111°12'0 0.0 1019.6 5.0
2014-Jul-27 20:00N 68°24' W 111°12'0 0.0 1019.4 5.3
2014-Jul-27 19:00N 68°24' W 111°12'0 0.0 1019.0 5.8
2014-Jul-27 18:00N 68°24' W 111°12'2 1.1 1018.9 5.0
2014-Jul-27 16:00N 68°24' W 111°18'0 0.0 1018.5 4.8
2014-Jul-27 15:00N 68°24' W 111°18'0 0.0 1018.2 4.3
2014-Jul-27 14:00N 68°24' W 111°18'0 0.0 1018.1 5.5
2014-Jul-27 13:00N 68°24' W 111°18'0 0.0 1018.0 4.5
2014-Jul-27 10:00N 68°24' W 111°18'0 0.0 1016.7 5.5
2014-Jul-27 09:00N 68°24' W 111°18'0 0.0 1017.1 6.0
2014-Jul-27 08:00N 68°24' W 111°18'0 0.0 1016.7 6.0
2014-Jul-27 06:00N 68°24' W 111°18'0 0.0 1016.3 7.0
2014-Jul-27 03:00N 68°24' W 111°18'0 0.0 1016.8 7.0
2014-Jul-27 01:00N 68°24' W 111°18'7 6.6 1016.5 6.0
2014-Jul-27 00:00N 68°24' W 111°36'9 8.8 1016.8 6.5
2014-Jul-26 23:00N 68°24' W 112°00'9 8.8 1016.4 6.3
2014-Jul-26 22:00N 68°24' W 112°24'9 8.8 1016.0 6.0
2014-Jul-26 21:00N 68°24' W 112°48'7 6.6 1016.0 6.8
2014-Jul-26 20:00N 68°24' W 113°06'9 8.9 1016.0 7.0
2014-Jul-26 19:00N 68°30' W 113°24'9 8.9 1015.9 11.0
2014-Jul-26 18:00N 68°36' W 113°42'1110.6 1015.9 9.3
2014-Jul-26 17:00N 68°42' W 114°06'7 6.5 1016.0 8.3
2014-Jul-26 16:00N 68°42' W 114°24'1110.6 1015.9 5.8
2014-Jul-26 15:00N 68°48' W 114°48'0 0.0 1015.6 8.3
2014-Jul-26 13:00N 68°48' W 114°48'0 0.0 1015.3 8.3
2014-Jul-26 12:00N 68°48' W 114°48'0 0.0 1015.1 8.5
2014-Jul-26 11:00N 68°48' W 114°48'0 0.0 1015.0 8.8
2014-Jul-26 10:00N 68°48' W 114°48'0 0.0 1014.8 8.3
2014-Jul-26 08:00N 68°48' W 114°48'0 0.0 1014.6 8.5
2014-Jul-26 05:00N 68°48' W 114°48'0 0.0 1013.6 9.0
2014-Jul-26 04:00N 68°48' W 114°48'0 0.0 1013.1 9.3
2014-Jul-26 03:00N 68°48' W 114°48'0 0.0 1012.6 9.8
2014-Jul-26 02:00N 68°48' W 114°48'0 0.0 1012.3 9.0
2014-Jul-26 00:00N 68°48' W 114°48'0 0.0 1011.9 9.5
2014-Jul-25 22:00N 68°48' W 114°48'0 0.0 1010.8 14.0
2014-Jul-25 21:00N 68°48' W 114°48'0 0.0 1010.7 12.3
2014-Jul-25 20:00N 68°48' W 114°48'0 0.0 1010.1 10.8
2014-Jul-25 19:00N 68°48' W 114°48'0 0.0 1009.5 9.8
2014-Jul-25 18:00N 68°48' W 114°48'0 0.0 1009.0 8.8
2014-Jul-25 17:00N 68°48' W 114°48'0 0.0 1008.9 10.0
2014-Jul-25 16:00N 68°48' W 114°48'0 0.0 1008.2 10.3
2014-Jul-25 13:00N 68°48' W 114°48'0 0.0 1008.0 8.8
2014-Jul-25 12:00N 68°48' W 114°48'2 2.2 1007.7 8.5
2014-Jul-25 11:00N 68°48' W 114°42'7 7.4 1006.0 8.8
2014-Jul-25 10:00N 68°54' W 114°54'39 9.7 1005.7 6.8
2014-Jul-25 06:00N 69°12' W 116°30'9 8.5 1005.4 6.3
2014-Jul-25 05:00N 69°12' W 116°54'1212.2 1005.7 6.5
2014-Jul-25 04:00N 69°18' W 117°24'1010.4 1005.8 6.8
2014-Jul-25 03:00N 69°24' W 117°48'6 6.3 1005.7 7.3
2014-Jul-25 02:00N 69°24' W 118°06'1010.3 1005.6 8.8
2014-Jul-25 01:00N 69°30' W 118°30'8 8.4 1005.4 9.0
2014-Jul-25 00:00N 69°30' W 118°54'1010.3 1005.5 10.5
2014-Jul-24 23:00N 69°36' W 119°18'1010.3 1005.3 9.0
2014-Jul-24 22:00N 69°42' W 119°42'20 9.8 1004.7 8.3
2014-Jul-24 20:00N 69°48' W 120°36'8 8.3 1004.7 8.0
2014-Jul-24 19:00N 69°48' W 121°00'1010.4 1004.6 8.5
2014-Jul-24 18:00N 69°48' W 121°30'8 8.3 1004.4 8.8
2014-Jul-24 17:00N 69°48' W 121°54'1010.2 1004.2 9.0
2014-Jul-24 16:00N 69°54' W 122°18'1010.2 1004.3 8.5
2014-Jul-24 15:00N 69°48' W 122°42'0 0.0 1004.1 9.5
2014-Jul-24 13:00N 69°48' W 122°42'0 0.0 1004.0 8.5
2014-Jul-24 12:00N 69°48' W 122°42'0 0.0 1004.0 8.5
2014-Jul-24 11:00N 69°48' W 122°42'0 0.0 1003.8 9.3
2014-Jul-24 10:00N 69°48' W 122°42'0 0.0 1003.7 8.5
2014-Jul-24 09:00N 69°48' W 122°42'0 0.0 1003.7 8.0
2014-Jul-24 08:00N 69°48' W 122°42'0 0.0 1002.7 8.0
2014-Jul-24 07:00N 69°48' W 122°42'0 0.0 1002.5 8.8
2014-Jul-24 06:00N 69°48' W 122°42'0 0.0 1003.4 8.8
2014-Jul-24 02:00N 69°48' W 122°42'0 0.0 1004.2 9.3
2014-Jul-24 01:00N 69°48' W 122°42'6 6.2 1004.0 9.3
2014-Jul-24 00:00N 69°48' W 123°00'9 8.6 1004.9 11.0
2014-Jul-23 23:00N 69°42' W 123°18'9 8.7 1004.9 11.3
2014-Jul-23 22:00N 69°36' W 123°36'9 8.7 1005.0 11.0
2014-Jul-23 21:00N 69°30' W 123°54'   1005.4 13.8

Dump ship's entire track history